sensor_id;sensor_type;location;lat;lon;timestamp;temperature;humidity
37378;DHT22;23248;48.120;14.854;2023-01-31T00:00:22;3.60;99.90
37378;DHT22;23248;48.120;14.854;2023-01-31T00:02:48;3.60;99.90
37378;DHT22;23248;48.120;14.854;2023-01-31T00:05:14;3.60;99.90
37378;DHT22;23248;48.120;14.854;2023-01-31T00:07:39;3.60;99.90
37378;DHT22;23248;48.120;14.854;2023-01-31T00:10:05;3.60;99.90
37378;DHT22;23248;48.120;14.854;2023-01-31T00:12:31;3.60;99.90
37378;DHT22;23248;48.120;14.854;2023-01-31T00:14:56;3.50;99.90
37378;DHT22;23248;48.120;14.854;2023-01-31T00:17:22;3.60;99.90
37378;DHT22;23248;48.120;14.854;2023-01-31T00:19:47;3.50;99.90
37378;DHT22;23248;48.120;14.854;2023-01-31T00:22:13;3.50;99.90
37378;DHT22;23248;48.120;14.854;2023-01-31T00:24:39;3.50;99.90
37378;DHT22;23248;48.120;14.854;2023-01-31T00:27:04;3.60;99.90
37378;DHT22;23248;48.120;14.854;2023-01-31T00:29:30;3.60;99.90
37378;DHT22;23248;48.120;14.854;2023-01-31T00:31:56;3.60;99.90
37378;DHT22;23248;48.120;14.854;2023-01-31T00:34:21;3.60;99.90
37378;DHT22;23248;48.120;14.854;2023-01-31T00:36:47;3.70;99.90
37378;DHT22;23248;48.120;14.854;2023-01-31T00:39:13;3.70;99.90
37378;DHT22;23248;48.120;14.854;2023-01-31T00:41:38;3.70;99.90
37378;DHT22;23248;48.120;14.854;2023-01-31T00:44:04;3.60;99.90
37378;DHT22;23248;48.120;14.854;2023-01-31T00:46:30;3.60;99.90
37378;DHT22;23248;48.120;14.854;2023-01-31T00:48:56;3.50;99.90
37378;DHT22;23248;48.120;14.854;2023-01-31T00:51:22;3.50;99.90
37378;DHT22;23248;48.120;14.854;2023-01-31T00:53:48;3.50;99.90
37378;DHT22;23248;48.120;14.854;2023-01-31T00:56:16;3.40;99.90
37378;DHT22;23248;48.120;14.854;2023-01-31T00:58:41;3.40;99.90
37378;DHT22;23248;48.120;14.854;2023-01-31T01:01:08;3.40;99.90
37378;DHT22;23248;48.120;14.854;2023-01-31T01:03:34;3.40;99.90
37378;DHT22;23248;48.120;14.854;2023-01-31T01:06:00;3.30;99.90
37378;DHT22;23248;48.120;14.854;2023-01-31T01:08:27;3.30;99.90
37378;DHT22;23248;48.120;14.854;2023-01-31T01:10:53;3.30;99.90
37378;DHT22;23248;48.120;14.854;2023-01-31T01:13:18;3.30;99.90
37378;DHT22;23248;48.120;14.854;2023-01-31T01:15:44;3.20;99.90
37378;DHT22;23248;48.120;14.854;2023-01-31T01:18:09;3.20;99.90
37378;DHT22;23248;48.120;14.854;2023-01-31T01:20:35;3.20;99.90
37378;DHT22;23248;48.120;14.854;2023-01-31T01:23:01;3.10;99.90
37378;DHT22;23248;48.120;14.854;2023-01-31T01:25:27;3.00;99.90
37378;DHT22;23248;48.120;14.854;2023-01-31T01:27:52;3.00;99.90
37378;DHT22;23248;48.120;14.854;2023-01-31T01:30:18;3.00;99.90
37378;DHT22;23248;48.120;14.854;2023-01-31T01:32:45;2.90;99.90
37378;DHT22;23248;48.120;14.854;2023-01-31T01:35:11;2.90;99.90
37378;DHT22;23248;48.120;14.854;2023-01-31T01:37:37;2.90;99.90
37378;DHT22;23248;48.120;14.854;2023-01-31T01:40:02;3.00;99.90
37378;DHT22;23248;48.120;14.854;2023-01-31T01:42:31;2.90;99.90
37378;DHT22;23248;48.120;14.854;2023-01-31T01:44:58;3.00;99.90
37378;DHT22;23248;48.120;14.854;2023-01-31T01:50:04;3.00;99.90
37378;DHT22;23248;48.120;14.854;2023-01-31T01:52:31;3.00;99.90
37378;DHT22;23248;48.120;14.854;2023-01-31T01:55:20;3.10;99.90
37378;DHT22;23248;48.120;14.854;2023-01-31T01:57:49;3.10;99.90
37378;DHT22;23248;48.120;14.854;2023-01-31T02:00:20;3.20;99.90
37378;DHT22;23248;48.120;14.854;2023-01-31T02:02:48;3.30;99.90
37378;DHT22;23248;48.120;14.854;2023-01-31T02:05:15;3.40;99.90
37378;DHT22;23248;48.120;14.854;2023-01-31T02:07:42;3.50;99.90
37378;DHT22;23248;48.120;14.854;2023-01-31T02:10:10;3.50;99.90
37378;DHT22;23248;48.120;14.854;2023-01-31T02:12:37;3.50;99.90
37378;DHT22;23248;48.120;14.854;2023-01-31T02:15:03;3.50;99.90
37378;DHT22;23248;48.120;14.854;2023-01-31T02:17:29;3.50;99.90
37378;DHT22;23248;48.120;14.854;2023-01-31T02:22:35;3.60;99.90
37378;DHT22;23248;48.120;14.854;2023-01-31T02:27:53;3.60;99.90
37378;DHT22;23248;48.120;14.854;2023-01-31T02:33:06;3.70;99.90
37378;DHT22;23248;48.120;14.854;2023-01-31T02:35:42;3.70;99.90
37378;DHT22;23248;48.120;14.854;2023-01-31T02:38:17;3.70;99.90
37378;DHT22;23248;48.120;14.854;2023-01-31T02:43:34;3.70;99.90
37378;DHT22;23248;48.120;14.854;2023-01-31T02:46:28;3.70;99.90
37378;DHT22;23248;48.120;14.854;2023-01-31T02:49:07;3.70;99.90
37378;DHT22;23248;48.120;14.854;2023-01-31T02:51:35;3.70;99.90
37378;DHT22;23248;48.120;14.854;2023-01-31T02:54:10;3.70;99.90
37378;DHT22;23248;48.120;14.854;2023-01-31T02:56:37;3.60;99.90
37378;DHT22;23248;48.120;14.854;2023-01-31T03:01:36;3.60;99.90
37378;DHT22;23248;48.120;14.854;2023-01-31T03:04:06;3.60;99.90
37378;DHT22;23248;48.120;14.854;2023-01-31T03:09:23;3.60;99.90
37378;DHT22;23248;48.120;14.854;2023-01-31T03:12:12;3.60;99.90
37378;DHT22;23248;48.120;14.854;2023-01-31T03:19:58;3.60;99.90
37378;DHT22;23248;48.120;14.854;2023-01-31T03:22:27;3.60;99.90
37378;DHT22;23248;48.120;14.854;2023-01-31T03:24:54;3.60;99.90
37378;DHT22;23248;48.120;14.854;2023-01-31T03:27:21;3.70;99.90
37378;DHT22;23248;48.120;14.854;2023-01-31T03:29:47;3.70;99.90
37378;DHT22;23248;48.120;14.854;2023-01-31T03:32:22;3.70;99.90
37378;DHT22;23248;48.120;14.854;2023-01-31T03:34:49;3.70;99.90
37378;DHT22;23248;48.120;14.854;2023-01-31T03:37:19;3.70;99.90
37378;DHT22;23248;48.120;14.854;2023-01-31T03:39:51;3.70;99.90
37378;DHT22;23248;48.120;14.854;2023-01-31T03:42:32;3.70;99.90
37378;DHT22;23248;48.120;14.854;2023-01-31T03:47:36;3.80;99.90
37378;DHT22;23248;48.120;14.854;2023-01-31T03:50:07;3.80;99.90
37378;DHT22;23248;48.120;14.854;2023-01-31T03:52:37;3.80;99.90
37378;DHT22;23248;48.120;14.854;2023-01-31T03:55:15;3.80;99.90
37378;DHT22;23248;48.120;14.854;2023-01-31T03:57:42;3.80;99.90
37378;DHT22;23248;48.120;14.854;2023-01-31T04:00:11;3.90;99.90
37378;DHT22;23248;48.120;14.854;2023-01-31T04:02:38;3.80;99.90
37378;DHT22;23248;48.120;14.854;2023-01-31T04:05:07;3.80;99.90
37378;DHT22;23248;48.120;14.854;2023-01-31T04:07:33;3.80;99.90
37378;DHT22;23248;48.120;14.854;2023-01-31T04:09:59;3.80;99.90
37378;DHT22;23248;48.120;14.854;2023-01-31T04:12:25;3.80;99.90
37378;DHT22;23248;48.120;14.854;2023-01-31T04:14:51;3.90;99.90
37378;DHT22;23248;48.120;14.854;2023-01-31T04:17:16;3.80;99.90
37378;DHT22;23248;48.120;14.854;2023-01-31T04:19:42;3.60;99.90
37378;DHT22;23248;48.120;14.854;2023-01-31T04:22:08;3.60;99.90
37378;DHT22;23248;48.120;14.854;2023-01-31T04:24:34;3.50;99.90
37378;DHT22;23248;48.120;14.854;2023-01-31T04:27:00;3.50;99.90
37378;DHT22;23248;48.120;14.854;2023-01-31T04:29:26;3.40;99.90
37378;DHT22;23248;48.120;14.854;2023-01-31T04:31:52;3.20;99.90
37378;DHT22;23248;48.120;14.854;2023-01-31T04:34:18;3.10;99.90
37378;DHT22;23248;48.120;14.854;2023-01-31T04:36:43;2.90;99.90
37378;DHT22;23248;48.120;14.854;2023-01-31T04:39:10;2.80;99.90
37378;DHT22;23248;48.120;14.854;2023-01-31T04:41:37;2.70;99.90
37378;DHT22;23248;48.120;14.854;2023-01-31T04:44:03;2.70;99.90
37378;DHT22;23248;48.120;14.854;2023-01-31T04:46:29;2.70;99.90
37378;DHT22;23248;48.120;14.854;2023-01-31T04:48:54;2.80;99.90
37378;DHT22;23248;48.120;14.854;2023-01-31T04:51:20;2.80;99.90
37378;DHT22;23248;48.120;14.854;2023-01-31T04:53:46;2.80;99.90
37378;DHT22;23248;48.120;14.854;2023-01-31T04:56:12;2.80;99.90
37378;DHT22;23248;48.120;14.854;2023-01-31T04:58:38;2.90;99.90
37378;DHT22;23248;48.120;14.854;2023-01-31T05:01:03;2.90;99.90
37378;DHT22;23248;48.120;14.854;2023-01-31T05:03:29;3.00;99.90
37378;DHT22;23248;48.120;14.854;2023-01-31T05:05:55;3.10;99.90
37378;DHT22;23248;48.120;14.854;2023-01-31T05:08:21;3.20;99.90
37378;DHT22;23248;48.120;14.854;2023-01-31T05:10:46;3.20;99.90
37378;DHT22;23248;48.120;14.854;2023-01-31T05:13:12;3.20;99.90
37378;DHT22;23248;48.120;14.854;2023-01-31T05:15:39;3.20;99.90
37378;DHT22;23248;48.120;14.854;2023-01-31T05:18:05;3.20;99.90
37378;DHT22;23248;48.120;14.854;2023-01-31T05:20:35;3.10;99.90
37378;DHT22;23248;48.120;14.854;2023-01-31T05:23:04;3.10;99.90
37378;DHT22;23248;48.120;14.854;2023-01-31T05:25:30;3.00;99.90
37378;DHT22;23248;48.120;14.854;2023-01-31T05:27:56;3.10;99.90
37378;DHT22;23248;48.120;14.854;2023-01-31T05:30:22;3.20;99.90
37378;DHT22;23248;48.120;14.854;2023-01-31T05:32:51;3.30;99.90
37378;DHT22;23248;48.120;14.854;2023-01-31T05:35:17;3.40;99.90
37378;DHT22;23248;48.120;14.854;2023-01-31T05:37:42;3.40;99.90
37378;DHT22;23248;48.120;14.854;2023-01-31T05:40:13;3.50;99.90
37378;DHT22;23248;48.120;14.854;2023-01-31T05:42:39;3.60;99.90
37378;DHT22;23248;48.120;14.854;2023-01-31T05:45:05;3.50;99.90
37378;DHT22;23248;48.120;14.854;2023-01-31T05:47:31;3.50;99.90
37378;DHT22;23248;48.120;14.854;2023-01-31T05:49:56;3.50;99.90
37378;DHT22;23248;48.120;14.854;2023-01-31T05:52:22;3.60;99.90
37378;DHT22;23248;48.120;14.854;2023-01-31T05:54:47;3.60;99.90
37378;DHT22;23248;48.120;14.854;2023-01-31T05:57:13;3.60;99.90
37378;DHT22;23248;48.120;14.854;2023-01-31T05:59:40;3.50;99.90
37378;DHT22;23248;48.120;14.854;2023-01-31T06:02:07;3.60;99.90
37378;DHT22;23248;48.120;14.854;2023-01-31T06:04:36;3.60;99.90
37378;DHT22;23248;48.120;14.854;2023-01-31T06:07:02;3.60;99.90
37378;DHT22;23248;48.120;14.854;2023-01-31T06:09:27;3.50;99.90
37378;DHT22;23248;48.120;14.854;2023-01-31T06:11:53;3.50;99.90
37378;DHT22;23248;48.120;14.854;2023-01-31T06:14:19;3.50;99.90
37378;DHT22;23248;48.120;14.854;2023-01-31T06:16:44;3.50;99.90
37378;DHT22;23248;48.120;14.854;2023-01-31T06:19:10;3.50;99.90
37378;DHT22;23248;48.120;14.854;2023-01-31T06:21:36;3.40;99.90
37378;DHT22;23248;48.120;14.854;2023-01-31T06:24:02;3.40;99.90
37378;DHT22;23248;48.120;14.854;2023-01-31T06:26:28;3.40;99.90
37378;DHT22;23248;48.120;14.854;2023-01-31T06:28:54;3.30;99.90
37378;DHT22;23248;48.120;14.854;2023-01-31T06:31:20;3.30;99.90
37378;DHT22;23248;48.120;14.854;2023-01-31T06:33:46;3.30;99.90
37378;DHT22;23248;48.120;14.854;2023-01-31T06:36:11;3.30;99.90
37378;DHT22;23248;48.120;14.854;2023-01-31T06:38:37;3.20;99.90
37378;DHT22;23248;48.120;14.854;2023-01-31T06:41:03;3.20;99.90
37378;DHT22;23248;48.120;14.854;2023-01-31T06:43:29;3.20;99.90
37378;DHT22;23248;48.120;14.854;2023-01-31T06:45:55;3.20;99.90
37378;DHT22;23248;48.120;14.854;2023-01-31T06:48:21;3.20;99.90
37378;DHT22;23248;48.120;14.854;2023-01-31T06:50:47;3.10;99.90
37378;DHT22;23248;48.120;14.854;2023-01-31T06:53:12;3.10;99.90
37378;DHT22;23248;48.120;14.854;2023-01-31T06:55:38;3.00;99.90
37378;DHT22;23248;48.120;14.854;2023-01-31T06:58:04;3.10;99.90
37378;DHT22;23248;48.120;14.854;2023-01-31T07:00:30;3.00;99.90
37378;DHT22;23248;48.120;14.854;2023-01-31T07:02:56;3.10;99.90
37378;DHT22;23248;48.120;14.854;2023-01-31T07:05:22;3.20;99.90
37378;DHT22;23248;48.120;14.854;2023-01-31T07:07:48;3.20;99.90
37378;DHT22;23248;48.120;14.854;2023-01-31T07:10:15;3.20;99.90
37378;DHT22;23248;48.120;14.854;2023-01-31T07:12:41;3.10;99.90
37378;DHT22;23248;48.120;14.854;2023-01-31T07:15:09;3.10;99.90
37378;DHT22;23248;48.120;14.854;2023-01-31T07:17:35;3.20;99.90
37378;DHT22;23248;48.120;14.854;2023-01-31T07:20:01;3.30;99.90
37378;DHT22;23248;48.120;14.854;2023-01-31T07:22:27;3.30;99.90
37378;DHT22;23248;48.120;14.854;2023-01-31T07:24:52;3.40;99.90
37378;DHT22;23248;48.120;14.854;2023-01-31T07:27:18;3.40;99.90
37378;DHT22;23248;48.120;14.854;2023-01-31T07:29:44;3.40;99.90
37378;DHT22;23248;48.120;14.854;2023-01-31T07:32:10;3.50;99.90
37378;DHT22;23248;48.120;14.854;2023-01-31T07:34:36;3.50;99.90
37378;DHT22;23248;48.120;14.854;2023-01-31T07:37:02;3.50;99.90
37378;DHT22;23248;48.120;14.854;2023-01-31T07:39:28;3.50;99.90
37378;DHT22;23248;48.120;14.854;2023-01-31T07:41:54;3.50;99.90
37378;DHT22;23248;48.120;14.854;2023-01-31T07:44:20;3.60;99.90
37378;DHT22;23248;48.120;14.854;2023-01-31T07:46:46;3.50;99.90
37378;DHT22;23248;48.120;14.854;2023-01-31T07:49:12;3.50;99.90
37378;DHT22;23248;48.120;14.854;2023-01-31T07:51:38;3.50;99.90
37378;DHT22;23248;48.120;14.854;2023-01-31T07:54:10;3.40;99.90
37378;DHT22;23248;48.120;14.854;2023-01-31T07:56:36;3.40;99.90
37378;DHT22;23248;48.120;14.854;2023-01-31T07:59:01;3.40;99.90
37378;DHT22;23248;48.120;14.854;2023-01-31T08:01:27;3.40;99.90
37378;DHT22;23248;48.120;14.854;2023-01-31T08:04:14;3.50;99.90
37378;DHT22;23248;48.120;14.854;2023-01-31T08:06:41;3.50;99.90
37378;DHT22;23248;48.120;14.854;2023-01-31T08:09:07;3.60;99.90
37378;DHT22;23248;48.120;14.854;2023-01-31T08:11:33;3.60;99.90
37378;DHT22;23248;48.120;14.854;2023-01-31T08:13:59;3.60;99.90
37378;DHT22;23248;48.120;14.854;2023-01-31T08:16:25;3.60;99.90
37378;DHT22;23248;48.120;14.854;2023-01-31T08:18:52;3.60;99.90
37378;DHT22;23248;48.120;14.854;2023-01-31T08:21:18;3.60;99.90
37378;DHT22;23248;48.120;14.854;2023-01-31T08:23:44;3.60;99.90
37378;DHT22;23248;48.120;14.854;2023-01-31T08:26:11;3.60;99.90
37378;DHT22;23248;48.120;14.854;2023-01-31T08:28:38;3.60;99.90
37378;DHT22;23248;48.120;14.854;2023-01-31T08:31:04;3.70;99.90
37378;DHT22;23248;48.120;14.854;2023-01-31T08:33:29;3.70;99.90
37378;DHT22;23248;48.120;14.854;2023-01-31T08:35:55;3.70;99.90
37378;DHT22;23248;48.120;14.854;2023-01-31T08:38:21;3.80;99.90
37378;DHT22;23248;48.120;14.854;2023-01-31T08:40:46;3.80;99.90
37378;DHT22;23248;48.120;14.854;2023-01-31T08:43:12;3.80;99.90
37378;DHT22;23248;48.120;14.854;2023-01-31T08:45:38;3.80;99.90
37378;DHT22;23248;48.120;14.854;2023-01-31T08:48:04;3.80;99.90
37378;DHT22;23248;48.120;14.854;2023-01-31T08:50:30;3.80;99.90
37378;DHT22;23248;48.120;14.854;2023-01-31T08:53:00;3.80;99.90
37378;DHT22;23248;48.120;14.854;2023-01-31T08:55:26;3.90;99.90
37378;DHT22;23248;48.120;14.854;2023-01-31T08:57:52;3.90;99.90
37378;DHT22;23248;48.120;14.854;2023-01-31T09:00:19;3.90;99.90
37378;DHT22;23248;48.120;14.854;2023-01-31T09:02:50;3.90;99.90
37378;DHT22;23248;48.120;14.854;2023-01-31T09:05:15;3.90;99.90
37378;DHT22;23248;48.120;14.854;2023-01-31T09:07:41;3.90;99.90
37378;DHT22;23248;48.120;14.854;2023-01-31T09:10:07;3.80;99.90
37378;DHT22;23248;48.120;14.854;2023-01-31T09:12:32;3.80;99.90
37378;DHT22;23248;48.120;14.854;2023-01-31T09:14:58;3.80;99.90
37378;DHT22;23248;48.120;14.854;2023-01-31T09:17:24;3.80;99.90
37378;DHT22;23248;48.120;14.854;2023-01-31T09:19:49;3.80;99.90
37378;DHT22;23248;48.120;14.854;2023-01-31T09:22:15;3.80;99.90
37378;DHT22;23248;48.120;14.854;2023-01-31T09:24:41;3.80;99.90
37378;DHT22;23248;48.120;14.854;2023-01-31T09:27:06;3.80;99.90
37378;DHT22;23248;48.120;14.854;2023-01-31T09:29:32;3.80;99.90
37378;DHT22;23248;48.120;14.854;2023-01-31T09:31:58;3.80;99.90
37378;DHT22;23248;48.120;14.854;2023-01-31T09:34:24;3.80;99.90
37378;DHT22;23248;48.120;14.854;2023-01-31T09:36:49;3.80;99.90
37378;DHT22;23248;48.120;14.854;2023-01-31T09:39:15;3.80;99.90
37378;DHT22;23248;48.120;14.854;2023-01-31T09:41:45;3.80;99.90
37378;DHT22;23248;48.120;14.854;2023-01-31T09:44:16;3.80;99.90
37378;DHT22;23248;48.120;14.854;2023-01-31T09:46:44;3.80;99.90
37378;DHT22;23248;48.120;14.854;2023-01-31T09:49:17;3.80;99.90
37378;DHT22;23248;48.120;14.854;2023-01-31T09:51:46;3.80;99.90
37378;DHT22;23248;48.120;14.854;2023-01-31T09:54:20;3.80;99.90
37378;DHT22;23248;48.120;14.854;2023-01-31T09:59:52;3.90;99.90
37378;DHT22;23248;48.120;14.854;2023-01-31T10:10:46;4.10;99.90
37378;DHT22;23248;48.120;14.854;2023-01-31T10:13:25;4.10;99.90
37378;DHT22;23248;48.120;14.854;2023-01-31T10:16:02;4.20;99.90
37378;DHT22;23248;48.120;14.854;2023-01-31T10:18:34;4.20;99.90
37378;DHT22;23248;48.120;14.854;2023-01-31T10:21:03;4.30;99.90
37378;DHT22;23248;48.120;14.854;2023-01-31T10:23:33;4.40;99.90
37378;DHT22;23248;48.120;14.854;2023-01-31T10:26:04;4.40;99.90
37378;DHT22;23248;48.120;14.854;2023-01-31T10:28:44;4.50;99.90
37378;DHT22;23248;48.120;14.854;2023-01-31T10:31:24;4.50;99.90
37378;DHT22;23248;48.120;14.854;2023-01-31T10:33:55;4.50;99.90
37378;DHT22;23248;48.120;14.854;2023-01-31T10:38:59;4.40;99.90
37378;DHT22;23248;48.120;14.854;2023-01-31T10:41:50;4.50;99.90
37378;DHT22;23248;48.120;14.854;2023-01-31T10:44:26;4.50;99.90
37378;DHT22;23248;48.120;14.854;2023-01-31T10:46:55;4.60;99.90
37378;DHT22;23248;48.120;14.854;2023-01-31T10:49:23;4.60;99.90
37378;DHT22;23248;48.120;14.854;2023-01-31T10:57:04;4.70;99.90
37378;DHT22;23248;48.120;14.854;2023-01-31T11:01:56;4.70;99.90
37378;DHT22;23248;48.120;14.854;2023-01-31T11:04:37;4.70;99.90
37378;DHT22;23248;48.120;14.854;2023-01-31T11:07:04;4.70;99.90
37378;DHT22;23248;48.120;14.854;2023-01-31T11:09:36;4.70;99.90
37378;DHT22;23248;48.120;14.854;2023-01-31T11:12:04;4.70;99.90
37378;DHT22;23248;48.120;14.854;2023-01-31T11:14:31;4.70;99.90
37378;DHT22;23248;48.120;14.854;2023-01-31T11:17:21;4.80;99.90
37378;DHT22;23248;48.120;14.854;2023-01-31T11:19:50;4.80;99.90
37378;DHT22;23248;48.120;14.854;2023-01-31T11:22:26;4.90;99.90
37378;DHT22;23248;48.120;14.854;2023-01-31T11:24:55;4.90;99.90
37378;DHT22;23248;48.120;14.854;2023-01-31T11:27:37;4.90;99.90
37378;DHT22;23248;48.120;14.854;2023-01-31T11:30:06;4.90;99.90
37378;DHT22;23248;48.120;14.854;2023-01-31T11:32:35;4.90;99.90
37378;DHT22;23248;48.120;14.854;2023-01-31T11:37:57;4.80;99.90
37378;DHT22;23248;48.120;14.854;2023-01-31T11:40:28;4.90;99.90
37378;DHT22;23248;48.120;14.854;2023-01-31T11:42:59;4.90;99.90
37378;DHT22;23248;48.120;14.854;2023-01-31T11:45:36;4.90;99.90
37378;DHT22;23248;48.120;14.854;2023-01-31T11:48:13;4.90;99.90
37378;DHT22;23248;48.120;14.854;2023-01-31T11:50:43;5.00;99.90
37378;DHT22;23248;48.120;14.854;2023-01-31T11:56:21;5.00;99.90
37378;DHT22;23248;48.120;14.854;2023-01-31T11:58:53;5.00;99.90
37378;DHT22;23248;48.120;14.854;2023-01-31T12:01:22;5.00;99.90
37378;DHT22;23248;48.120;14.854;2023-01-31T12:03:51;5.00;99.90
37378;DHT22;23248;48.120;14.854;2023-01-31T12:07:40;5.00;99.90
37378;DHT22;23248;48.120;14.854;2023-01-31T12:09:43;5.00;99.90
37378;DHT22;23248;48.120;14.854;2023-01-31T12:12:28;5.00;99.90
37378;DHT22;23248;48.120;14.854;2023-01-31T12:15:00;5.00;99.90
37378;DHT22;23248;48.120;14.854;2023-01-31T12:17:28;5.00;99.90
37378;DHT22;23248;48.120;14.854;2023-01-31T12:42:56;5.10;99.90
37378;DHT22;23248;48.120;14.854;2023-01-31T12:54:29;5.00;99.90
37378;DHT22;23248;48.120;14.854;2023-01-31T13:07:50;5.10;99.90
37378;DHT22;23248;48.120;14.854;2023-01-31T13:12:57;5.00;99.90
37378;DHT22;23248;48.120;14.854;2023-01-31T13:18:09;5.00;99.90
37378;DHT22;23248;48.120;14.854;2023-01-31T13:20:54;5.00;99.90
37378;DHT22;23248;48.120;14.854;2023-01-31T13:23:31;5.00;99.90
37378;DHT22;23248;48.120;14.854;2023-01-31T13:26:17;5.00;99.90
37378;DHT22;23248;48.120;14.854;2023-01-31T13:29:02;5.00;99.90
37378;DHT22;23248;48.120;14.854;2023-01-31T13:31:34;4.90;99.90
37378;DHT22;23248;48.120;14.854;2023-01-31T13:34:08;4.90;99.90
37378;DHT22;23248;48.120;14.854;2023-01-31T13:36:46;4.90;99.90
37378;DHT22;23248;48.120;14.854;2023-01-31T13:42:14;4.90;99.90
37378;DHT22;23248;48.120;14.854;2023-01-31T13:44:42;4.90;99.90
37378;DHT22;23248;48.120;14.854;2023-01-31T13:47:27;4.90;99.90
37378;DHT22;23248;48.120;14.854;2023-01-31T13:50:08;4.90;99.90
37378;DHT22;23248;48.120;14.854;2023-01-31T13:52:48;4.90;99.90
37378;DHT22;23248;48.120;14.854;2023-01-31T13:55:30;4.90;99.90
37378;DHT22;23248;48.120;14.854;2023-01-31T13:58:03;4.90;99.90
37378;DHT22;23248;48.120;14.854;2023-01-31T14:00:39;4.90;99.90
37378;DHT22;23248;48.120;14.854;2023-01-31T14:03:13;4.90;99.90
37378;DHT22;23248;48.120;14.854;2023-01-31T14:10:49;5.00;99.90
37378;DHT22;23248;48.120;14.854;2023-01-31T14:13:24;5.00;99.90
37378;DHT22;23248;48.120;14.854;2023-01-31T14:15:53;4.90;99.90
37378;DHT22;23248;48.120;14.854;2023-01-31T14:18:57;4.90;99.90
37378;DHT22;23248;48.120;14.854;2023-01-31T14:31:34;4.90;99.90
37378;DHT22;23248;48.120;14.854;2023-01-31T14:34:02;4.90;99.90
37378;DHT22;23248;48.120;14.854;2023-01-31T14:36:46;4.80;99.90
37378;DHT22;23248;48.120;14.854;2023-01-31T14:55:36;4.70;99.90
37378;DHT22;23248;48.120;14.854;2023-01-31T14:58:04;4.70;99.90
37378;DHT22;23248;48.120;14.854;2023-01-31T15:00:31;4.70;99.90
37378;DHT22;23248;48.120;14.854;2023-01-31T15:05:46;4.70;99.90
37378;DHT22;23248;48.120;14.854;2023-01-31T15:10:52;4.70;99.90
37378;DHT22;23248;48.120;14.854;2023-01-31T15:16:03;4.60;99.90
37378;DHT22;23248;48.120;14.854;2023-01-31T15:18:29;4.60;99.90
37378;DHT22;23248;48.120;14.854;2023-01-31T15:20:59;4.70;99.90
37378;DHT22;23248;48.120;14.854;2023-01-31T15:23:28;4.60;99.90
37378;DHT22;23248;48.120;14.854;2023-01-31T15:25:56;4.60;99.90
37378;DHT22;23248;48.120;14.854;2023-01-31T15:28:31;4.60;99.90
37378;DHT22;23248;48.120;14.854;2023-01-31T15:30:59;4.60;99.90
37378;DHT22;23248;48.120;14.854;2023-01-31T15:33:28;4.50;99.90
37378;DHT22;23248;48.120;14.854;2023-01-31T15:35:58;4.50;99.90
37378;DHT22;23248;48.120;14.854;2023-01-31T15:38:37;4.50;99.90
37378;DHT22;23248;48.120;14.854;2023-01-31T15:41:25;4.50;99.90
37378;DHT22;23248;48.120;14.854;2023-01-31T15:43:53;4.50;99.90
37378;DHT22;23248;48.120;14.854;2023-01-31T15:46:32;4.50;99.90
37378;DHT22;23248;48.120;14.854;2023-01-31T15:49:00;4.50;99.90
37378;DHT22;23248;48.120;14.854;2023-01-31T15:51:27;4.50;99.90
37378;DHT22;23248;48.120;14.854;2023-01-31T15:54:03;4.50;99.90
37378;DHT22;23248;48.120;14.854;2023-01-31T15:56:32;4.40;99.90
37378;DHT22;23248;48.120;14.854;2023-01-31T15:58:58;4.40;99.90
37378;DHT22;23248;48.120;14.854;2023-01-31T16:01:27;4.40;99.90
37378;DHT22;23248;48.120;14.854;2023-01-31T16:03:57;4.30;99.90
37378;DHT22;23248;48.120;14.854;2023-01-31T16:06:31;4.30;99.90
37378;DHT22;23248;48.120;14.854;2023-01-31T16:09:00;4.30;99.90
37378;DHT22;23248;48.120;14.854;2023-01-31T16:11:27;4.30;99.90
37378;DHT22;23248;48.120;14.854;2023-01-31T16:13:56;4.30;99.90
37378;DHT22;23248;48.120;14.854;2023-01-31T16:16:23;4.30;99.90
37378;DHT22;23248;48.120;14.854;2023-01-31T16:18:51;4.30;99.90
37378;DHT22;23248;48.120;14.854;2023-01-31T16:21:35;4.30;99.90
37378;DHT22;23248;48.120;14.854;2023-01-31T16:26:32;4.20;99.90
37378;DHT22;23248;48.120;14.854;2023-01-31T16:28:59;4.20;99.90
37378;DHT22;23248;48.120;14.854;2023-01-31T16:31:29;4.30;99.90
37378;DHT22;23248;48.120;14.854;2023-01-31T16:33:56;4.30;99.90
37378;DHT22;23248;48.120;14.854;2023-01-31T16:36:23;4.30;99.90
37378;DHT22;23248;48.120;14.854;2023-01-31T16:38:53;4.20;99.90
37378;DHT22;23248;48.120;14.854;2023-01-31T16:44:09;4.10;99.90
37378;DHT22;23248;48.120;14.854;2023-01-31T16:46:40;4.00;99.90
37378;DHT22;23248;48.120;14.854;2023-01-31T16:49:29;4.00;99.90
37378;DHT22;23248;48.120;14.854;2023-01-31T16:52:17;4.00;99.90
37378;DHT22;23248;48.120;14.854;2023-01-31T16:54:42;4.10;99.90
37378;DHT22;23248;48.120;14.854;2023-01-31T16:57:19;4.10;99.90
37378;DHT22;23248;48.120;14.854;2023-01-31T16:59:49;4.20;99.90
37378;DHT22;23248;48.120;14.854;2023-01-31T17:02:23;4.10;99.90
37378;DHT22;23248;48.120;14.854;2023-01-31T17:04:50;4.20;99.90
37378;DHT22;23248;48.120;14.854;2023-01-31T17:07:18;4.20;99.90
37378;DHT22;23248;48.120;14.854;2023-01-31T17:09:45;4.20;99.90
37378;DHT22;23248;48.120;14.854;2023-01-31T17:12:30;4.20;99.90
37378;DHT22;23248;48.120;14.854;2023-01-31T17:14:56;4.30;99.90
37378;DHT22;23248;48.120;14.854;2023-01-31T17:17:23;4.20;99.90
37378;DHT22;23248;48.120;14.854;2023-01-31T17:19:49;4.30;99.90
37378;DHT22;23248;48.120;14.854;2023-01-31T17:22:18;4.20;99.90
37378;DHT22;23248;48.120;14.854;2023-01-31T17:24:44;4.30;99.90
37378;DHT22;23248;48.120;14.854;2023-01-31T17:27:12;4.30;99.90
37378;DHT22;23248;48.120;14.854;2023-01-31T17:29:38;4.30;99.90
37378;DHT22;23248;48.120;14.854;2023-01-31T17:32:04;4.30;99.90
37378;DHT22;23248;48.120;14.854;2023-01-31T17:34:30;4.30;99.90
37378;DHT22;23248;48.120;14.854;2023-01-31T17:36:56;4.30;99.90
37378;DHT22;23248;48.120;14.854;2023-01-31T17:39:21;4.30;99.90
37378;DHT22;23248;48.120;14.854;2023-01-31T17:41:49;4.30;99.90
37378;DHT22;23248;48.120;14.854;2023-01-31T17:44:15;4.30;99.90
37378;DHT22;23248;48.120;14.854;2023-01-31T17:46:41;4.30;99.90
37378;DHT22;23248;48.120;14.854;2023-01-31T17:49:07;4.30;99.90
37378;DHT22;23248;48.120;14.854;2023-01-31T17:51:33;4.30;99.90
37378;DHT22;23248;48.120;14.854;2023-01-31T17:53:59;4.30;99.90
37378;DHT22;23248;48.120;14.854;2023-01-31T17:56:25;4.30;99.90
37378;DHT22;23248;48.120;14.854;2023-01-31T17:58:54;4.30;99.90
37378;DHT22;23248;48.120;14.854;2023-01-31T18:01:20;4.30;99.90
37378;DHT22;23248;48.120;14.854;2023-01-31T18:03:46;4.30;99.90
37378;DHT22;23248;48.120;14.854;2023-01-31T18:06:12;4.40;99.90
37378;DHT22;23248;48.120;14.854;2023-01-31T18:08:38;4.30;99.90
37378;DHT22;23248;48.120;14.854;2023-01-31T18:11:13;4.30;99.90